Time;durP1;ratioP1;P1;durP2;ratioP2;P2;SDS_P1;SDS_P2;PMS_P1;PMS_P2;Temp;Humidity;BMP_temperature;BMP_pressure;BME280_temperature;BME280_humidity;BME280_pressure;Samples;Min_cycle;Max_cycle;Signal;HPM_P1;HPM_P2
2022/09/15 00:01:10;;;;;;;6.47;3.63;;;16.60;99.90;;;;;;5048799;28;20029;-79
2022/09/15 00:03:38;;;;;;;5.47;3.15;;;16.70;99.90;;;;;;5050967;28;20040;-78
2022/09/15 00:06:07;;;;;;;5.13;3.15;;;16.80;99.90;;;;;;5054023;28;20040;-78
2022/09/15 00:08:34;;;;;;;3.85;2.53;;;16.60;99.90;;;;;;5048313;28;20033;-78
2022/09/15 00:11:09;;;;;;;2.30;1.80;;;16.40;99.90;;;;;;5056636;28;20571;-79
2022/09/15 00:13:38;;;;;;;4.03;2.72;;;16.40;99.90;;;;;;5062315;28;20040;-78
2022/09/15 00:16:07;;;;;;;2.72;1.83;;;16.30;99.90;;;;;;5061162;28;20090;-77
2022/09/15 00:18:35;;;;;;;3.78;1.83;;;16.40;99.90;;;;;;5059627;28;20029;-79
2022/09/15 00:21:12;;;;;;;4.68;2.50;;;16.40;99.90;;;;;;5054623;28;20063;-76
2022/09/15 00:23:40;;;;;;;4.43;3.00;;;16.30;99.90;;;;;;5056214;28;20028;-79
2022/09/15 00:26:09;;;;;;;6.03;3.20;;;16.40;99.90;;;;;;5054697;28;20373;-79
2022/09/15 00:28:37;;;;;;;5.60;2.80;;;16.40;99.90;;;;;;5056371;28;20504;-79
2022/09/15 00:31:10;;;;;;;4.75;2.58;;;16.50;99.90;;;;;;5038654;28;20074;-80
2022/09/15 00:33:38;;;;;;;4.45;2.72;;;16.50;99.90;;;;;;5051687;28;20102;-79
2022/09/15 00:36:08;;;;;;;5.47;2.85;;;16.50;99.90;;;;;;5051183;28;20401;-80
2022/09/15 00:38:37;;;;;;;5.50;2.90;;;16.30;99.90;;;;;;5053077;28;20032;-79
2022/09/15 00:41:06;;;;;;;4.03;2.92;;;16.20;99.90;;;;;;5055492;28;20429;-80
2022/09/15 00:44:04;;;;;;;5.38;2.30;;;16.00;99.90;;;;;;5056942;28;20556;-78
2022/09/15 00:46:39;;;;;;;6.80;3.00;;;15.90;99.90;;;;;;5060055;28;20033;-80
2022/09/15 00:49:09;;;;;;;4.15;2.90;;;15.70;99.90;;;;;;5058413;28;20441;-78
2022/09/15 00:52:00;;;;;;;5.40;3.38;;;15.70;99.90;;;;;;5054997;28;20142;-77
2022/09/15 00:54:36;;;;;;;3.50;2.47;;;15.60;99.90;;;;;;5052645;28;20107;-78
2022/09/15 00:57:15;;;;;;;5.05;2.65;;;15.50;99.90;;;;;;5057411;28;20028;-79
2022/09/15 00:59:43;;;;;;;3.53;1.90;;;15.40;99.90;;;;;;5065125;28;20040;-77
2022/09/15 01:02:23;;;;;;;4.45;1.73;;;15.40;99.90;;;;;;5061368;28;20610;-80
2022/09/15 01:04:53;;;;;;;3.13;2.08;;;15.40;99.90;;;;;;5073324;28;20396;-78
2022/09/15 01:07:45;;;;;;;3.40;1.70;;;15.40;99.90;;;;;;5055556;28;20040;-80
2022/09/15 01:10:25;;;;;;;5.10;1.73;;;15.50;99.90;;;;;;5046676;28;20040;-78
2022/09/15 01:12:57;;;;;;;5.22;3.20;;;15.60;99.90;;;;;;5051919;28;20032;-80
2022/09/15 01:15:50;;;;;;;3.25;1.90;;;15.60;99.90;;;;;;5056287;28;20340;-79
2022/09/15 01:18:40;;;;;;;4.40;2.53;;;15.80;99.90;;;;;;5053427;28;20029;-79
2022/09/15 01:21:30;;;;;;;4.68;2.92;;;15.80;99.90;;;;;;5057387;28;20060;-74
2022/09/15 01:24:34;;;;;;;7.10;3.30;;;16.00;99.90;;;;;;5032797;28;20499;-75
2022/09/15 01:27:28;;;;;;;5.57;3.15;;;16.10;99.90;;;;;;5055340;28;20480;-77
2022/09/15 01:30:04;;;;;;;6.88;3.90;;;16.20;99.90;;;;;;5055388;28;20451;-72
2022/09/15 01:33:05;;;;;;;8.23;3.33;;;16.20;99.90;;;;;;5058911;28;20035;-75
2022/09/15 01:35:57;;;;;;;3.05;2.30;;;16.30;99.90;;;;;;5054182;28;20082;-75
2022/09/15 01:38:49;;;;;;;3.13;2.30;;;16.50;99.90;;;;;;5058056;28;20080;-74
2022/09/15 01:41:38;;;;;;;3.67;2.58;;;16.90;99.90;;;;;;5065134;28;20475;-79
2022/09/15 01:44:17;;;;;;;3.17;1.58;;;17.40;99.90;;;;;;5042711;28;20105;-77
2022/09/15 01:46:53;;;;;;;4.40;2.58;;;17.60;99.90;;;;;;5054865;28;20043;-77
2022/09/15 01:49:27;;;;;;;2.72;1.50;;;17.70;99.90;;;;;;5057327;28;20506;-78
2022/09/15 01:51:55;;;;;;;3.30;1.90;;;17.70;99.90;;;;;;5054987;28;20029;-80
2022/09/15 01:54:27;;;;;;;2.65;1.50;;;17.60;99.90;;;;;;5057329;28;20032;-78
2022/09/15 01:56:55;;;;;;;2.80;1.30;;;17.60;99.90;;;;;;5063294;28;20503;-76
2022/09/15 01:59:22;;;;;;;2.00;1.67;;;17.50;99.90;;;;;;5059292;28;20053;-78
2022/09/15 02:02:04;;;;;;;1.35;1.08;;;17.60;99.90;;;;;;5053374;28;20988;-79
2022/09/15 02:04:44;;;;;;;5.15;1.80;;;17.70;99.90;;;;;;5050925;28;20048;-73
2022/09/15 02:07:34;;;;;;;2.40;1.33;;;17.80;99.90;;;;;;5053832;28;20017;-76
2022/09/15 02:10:05;;;;;;;4.63;1.58;;;17.60;99.90;;;;;;5057145;28;20032;-79
2022/09/15 02:13:05;;;;;;;2.05;0.90;;;17.50;99.90;;;;;;5057673;28;20029;-74
2022/09/15 02:15:47;;;;;;;1.52;0.90;;;17.40;99.90;;;;;;5060501;28;20027;-79
2022/09/15 02:18:29;;;;;;;3.00;1.45;;;17.30;99.90;;;;;;5052699;28;20031;-80
2022/09/15 02:21:13;;;;;;;2.92;1.40;;;17.30;99.90;;;;;;5055048;28;20467;-83
2022/09/15 02:23:49;;;;;;;1.98;1.27;;;17.20;99.90;;;;;;5060849;28;20384;-81
2022/09/15 02:26:21;;;;;;;4.90;1.42;;;17.00;99.90;;;;;;5060000;28;20044;-79
2022/09/15 02:28:51;;;;;;;1.60;1.15;;;16.90;99.90;;;;;;5059062;28;20506;-80
2022/09/15 02:31:21;;;;;;;2.25;1.23;;;16.90;99.90;;;;;;5060661;28;20052;-81
2022/09/15 02:33:58;;;;;;;4.18;1.55;;;16.80;99.90;;;;;;5053358;28;20631;-80
2022/09/15 02:36:27;;;;;;;2.53;1.27;;;16.80;99.90;;;;;;5054105;28;20028;-78
2022/09/15 02:39:02;;;;;;;1.15;0.93;;;16.70;99.90;;;;;;5057009;28;20040;-81
2022/09/15 02:41:30;;;;;;;2.22;1.10;;;16.60;99.90;;;;;;5062779;28;20024;-81
2022/09/15 02:43:58;;;;;;;2.50;1.30;;;16.50;99.90;;;;;;5053607;28;20048;-83
2022/09/15 02:46:25;;;;;;;4.60;1.08;;;16.50;99.90;;;;;;5061640;28;20033;-79
2022/09/15 02:48:52;;;;;;;3.95;1.63;;;16.40;99.90;;;;;;5071813;28;20518;-82
2022/09/15 02:51:20;;;;;;;1.67;0.85;;;16.40;99.90;;;;;;5069361;28;20047;-80
2022/09/15 02:53:47;;;;;;;2.17;1.15;;;16.40;99.90;;;;;;5062593;28;20028;-81
2022/09/15 02:56:15;;;;;;;1.52;0.98;;;16.40;99.90;;;;;;5059533;28;20033;-81
2022/09/15 02:58:43;;;;;;;1.95;0.90;;;16.30;99.90;;;;;;5058656;28;20043;-79
2022/09/15 03:01:16;;;;;;;1.40;0.75;;;16.20;99.90;;;;;;5067901;28;20029;-80
2022/09/15 03:03:45;;;;;;;1.10;0.82;;;16.00;99.90;;;;;;5063142;28;20067;-83
2022/09/15 03:06:16;;;;;;;3.03;1.33;;;15.90;99.90;;;;;;5037132;28;20040;-83
2022/09/15 03:08:55;;;;;;;1.98;1.00;;;15.90;99.90;;;;;;5062515;28;20028;-87
2022/09/15 03:11:25;;;;;;;1.08;0.80;;;15.70;99.90;;;;;;5086228;28;20017;-83
2022/09/15 03:14:01;;;;;;;1.58;0.95;;;15.60;99.90;;;;;;5083804;28;20186;-87
2022/09/15 03:16:31;;;;;;;2.05;1.30;;;15.50;99.90;;;;;;5083397;28;20175;-88
2022/09/15 03:18:59;;;;;;;1.63;1.20;;;15.50;99.90;;;;;;5079465;28;20033;-87
2022/09/15 03:21:28;;;;;;;3.65;1.38;;;15.40;99.90;;;;;;5062363;28;20029;-84
2022/09/15 03:23:59;;;;;;;5.07;1.73;;;15.30;99.90;;;;;;5080425;28;20093;-88
2022/09/15 03:26:26;;;;;;;2.80;1.50;;;15.20;99.90;;;;;;5077117;28;20059;-92
2022/09/15 03:28:54;;;;;;;2.22;1.33;;;15.20;99.90;;;;;;5061914;28;20021;-91
2022/09/15 03:31:21;;;;;;;2.25;1.15;;;15.10;99.90;;;;;;5070783;28;20063;-91
2022/09/15 03:33:49;;;;;;;1.98;1.20;;;15.00;99.90;;;;;;5055315;28;20035;-87
2022/09/15 03:36:16;;;;;;;1.25;1.15;;;15.00;99.90;;;;;;5070859;28;20036;-85
2022/09/15 03:38:43;;;;;;;1.63;1.27;;;14.90;99.90;;;;;;5056860;28;20025;-82
2022/09/15 03:41:12;;;;;;;1.55;1.38;;;14.80;99.90;;;;;;5077847;28;20032;-84
2022/09/15 03:43:40;;;;;;;1.48;0.93;;;14.60;99.90;;;;;;5067232;28;20108;-82
2022/09/15 03:46:10;;;;;;;4.38;2.30;;;14.50;99.90;;;;;;5076918;28;20028;-82
2022/09/15 03:48:39;;;;;;;4.63;1.35;;;14.40;99.90;;;;;;5064577;28;20071;-81
2022/09/15 03:51:09;;;;;;;3.58;2.28;;;14.40;99.90;;;;;;5064932;28;20032;-82
2022/09/15 03:53:38;;;;;;;4.35;1.70;;;14.30;99.90;;;;;;5053816;28;20031;-83
2022/09/15 03:56:09;;;;;;;3.15;2.00;;;14.20;99.90;;;;;;5072871;28;20032;-81
2022/09/15 03:58:37;;;;;;;2.50;1.70;;;14.10;99.90;;;;;;5061960;28;20040;-80
2022/09/15 04:01:04;;;;;;;3.50;1.80;;;14.10;99.90;;;;;;5073522;28;20479;-81
2022/09/15 04:03:32;;;;;;;3.13;1.40;;;14.00;99.90;;;;;;5063212;28;20032;-79
2022/09/15 04:05:59;;;;;;;3.78;2.17;;;14.00;99.90;;;;;;5071515;28;20036;-79
2022/09/15 04:08:26;;;;;;;2.40;1.80;;;13.90;99.90;;;;;;5062752;28;20167;-80
2022/09/15 04:10:54;;;;;;;2.45;1.55;;;13.90;99.90;;;;;;5073241;28;20037;-82
2022/09/15 04:13:22;;;;;;;5.78;2.38;;;13.80;99.90;;;;;;5071334;28;20024;-81
2022/09/15 04:15:59;;;;;;;7.18;2.20;;;13.80;99.90;;;;;;5066687;28;20437;-75
2022/09/15 04:18:28;;;;;;;4.03;1.80;;;13.70;99.90;;;;;;5068425;28;20108;-81
2022/09/15 04:21:04;;;;;;;5.70;2.13;;;13.80;99.90;;;;;;5054927;28;20017;-80
2022/09/15 04:23:32;;;;;;;4.88;1.67;;;13.70;99.90;;;;;;5066183;28;20489;-79
2022/09/15 04:26:02;;;;;;;5.68;2.20;;;13.70;99.90;;;;;;5069615;28;20123;-83
2022/09/15 04:28:33;;;;;;;6.28;2.58;;;13.70;99.90;;;;;;5070457;28;20398;-80
2022/09/15 04:31:11;;;;;;;3.40;1.80;;;13.70;99.90;;;;;;5065520;28;20112;-81
2022/09/15 04:33:40;;;;;;;4.68;2.17;;;13.80;99.90;;;;;;5060893;28;20083;-82
2022/09/15 04:36:14;;;;;;;2.75;1.40;;;13.80;99.90;;;;;;5075545;28;20056;-83
2022/09/15 04:38:41;;;;;;;3.90;2.03;;;13.80;99.90;;;;;;5055926;28;20083;-83
2022/09/15 04:41:09;;;;;;;2.30;1.70;;;13.80;99.90;;;;;;5064274;28;20075;-81
2022/09/15 04:43:36;;;;;;;1.75;1.40;;;13.80;99.90;;;;;;5060192;28;20441;-83
2022/09/15 04:46:04;;;;;;;2.03;1.50;;;13.80;99.90;;;;;;5070021;28;20091;-82
2022/09/15 04:48:32;;;;;;;3.50;2.00;;;13.80;99.90;;;;;;5063336;28;20131;-83
2022/09/15 04:51:07;;;;;;;3.05;1.75;;;13.80;99.90;;;;;;5070338;28;20037;-83
2022/09/15 04:53:34;;;;;;;7.03;2.13;;;13.80;99.90;;;;;;5053273;28;20509;-82
2022/09/15 04:56:16;;;;;;;2.75;2.33;;;13.80;99.90;;;;;;5069651;28;20119;-82
2022/09/15 04:58:50;;;;;;;4.70;3.28;;;13.90;99.90;;;;;;5068838;28;20017;-85
2022/09/15 05:01:28;;;;;;;4.60;2.55;;;13.90;99.90;;;;;;5060814;28;20105;-85
2022/09/15 05:03:55;;;;;;;3.28;2.40;;;14.00;99.90;;;;;;5064665;28;20037;-85
2022/09/15 05:06:26;;;;;;;2.90;2.28;;;14.20;99.90;;;;;;5057053;28;20042;-80
2022/09/15 05:08:57;;;;;;;2.97;1.95;;;14.40;99.90;;;;;;5058272;28;20020;-84
2022/09/15 05:11:25;;;;;;;3.13;1.70;;;14.70;99.90;;;;;;5056873;28;20040;-79
2022/09/15 05:13:53;;;;;;;7.40;2.17;;;14.90;99.90;;;;;;5059192;28;20387;-82
2022/09/15 05:16:26;;;;;;;2.78;1.75;;;15.10;99.90;;;;;;5062254;28;20039;-81
2022/09/15 05:18:56;;;;;;;2.90;1.77;;;15.20;99.90;;;;;;5063798;28;20020;-81
2022/09/15 05:21:24;;;;;;;2.75;1.95;;;15.10;99.90;;;;;;5074915;28;20034;-79
2022/09/15 05:23:52;;;;;;;1.70;1.08;;;15.00;99.90;;;;;;5065094;28;20432;-82
2022/09/15 05:26:26;;;;;;;2.45;1.30;;;15.00;99.90;;;;;;5058883;28;20032;-82
2022/09/15 05:28:54;;;;;;;2.08;1.40;;;15.10;99.90;;;;;;5066044;28;20028;-90
2022/09/15 05:31:29;;;;;;;1.73;1.20;;;15.10;99.90;;;;;;5059443;28;20079;-83
2022/09/15 05:33:57;;;;;;;3.25;1.17;;;15.10;99.90;;;;;;5065026;28;20050;-89
2022/09/15 05:36:25;;;;;;;3.63;1.80;;;15.20;99.90;;;;;;5062405;28;20105;-85
2022/09/15 05:38:56;;;;;;;1.92;1.17;;;15.10;99.90;;;;;;5064917;28;20035;-89
2022/09/15 05:41:26;;;;;;;2.25;1.55;;;15.10;99.90;;;;;;5063080;28;20368;-84
2022/09/15 05:43:58;;;;;;;2.17;1.50;;;14.90;99.90;;;;;;5073714;28;20100;-87
2022/09/15 05:46:27;;;;;;;2.47;1.50;;;14.80;99.90;;;;;;5059851;28;20168;-89
2022/09/15 05:48:57;;;;;;;2.97;1.65;;;14.70;99.90;;;;;;5069167;28;20501;-84
2022/09/15 05:51:25;;;;;;;3.92;1.80;;;14.70;99.90;;;;;;5070105;28;20040;-80
2022/09/15 05:53:52;;;;;;;1.70;1.55;;;14.60;99.90;;;;;;5063267;28;20036;-90
2022/09/15 05:56:20;;;;;;;2.90;1.67;;;14.60;99.90;;;;;;5071680;28;20068;-86
2022/09/15 05:58:48;;;;;;;2.75;1.60;;;14.50;99.90;;;;;;5066319;28;20025;-89
2022/09/15 06:01:22;;;;;;;5.00;2.28;;;14.50;99.90;;;;;;5063940;28;20037;-86
2022/09/15 06:03:50;;;;;;;1.98;1.65;;;14.40;99.90;;;;;;5058875;28;20483;-87
2022/09/15 06:06:17;;;;;;;6.97;1.80;;;14.40;99.90;;;;;;5062671;28;20036;-83
2022/09/15 06:08:49;;;;;;;3.15;1.60;;;14.40;99.90;;;;;;5072698;28;20020;-81
2022/09/15 06:11:19;;;;;;;2.00;1.45;;;14.50;99.90;;;;;;5060732;28;20028;-84
2022/09/15 06:13:47;;;;;;;3.13;1.63;;;14.50;99.90;;;;;;5062143;28;20113;-87
2022/09/15 06:16:18;;;;;;;5.43;2.65;;;14.70;99.90;;;;;;5063474;28;20082;-85
2022/09/15 06:18:47;;;;;;;1.88;1.67;;;14.70;99.90;;;;;;5068328;28;20396;-81
2022/09/15 06:21:17;;;;;;;3.45;1.58;;;14.70;99.90;;;;;;5056990;28;20472;-76
2022/09/15 06:23:44;;;;;;;3.63;2.17;;;14.70;99.90;;;;;;5072215;28;20578;-82
2022/09/15 06:26:17;;;;;;;3.90;1.85;;;14.60;99.90;;;;;;5066573;28;20036;-82
2022/09/15 06:28:50;;;;;;;2.90;1.30;;;14.60;99.90;;;;;;5071425;28;20094;-84
2022/09/15 06:31:18;;;;;;;3.90;2.20;;;14.60;99.90;;;;;;5072077;28;20050;-82
2022/09/15 06:33:49;;;;;;;2.60;2.08;;;14.60;99.90;;;;;;5054918;28;20116;-85
2022/09/15 06:36:18;;;;;;;2.63;2.40;;;14.50;99.90;;;;;;5071815;28;20036;-87
2022/09/15 06:38:46;;;;;;;1.58;1.20;;;14.50;99.90;;;;;;5071165;28;20025;-86
2022/09/15 06:41:14;;;;;;;3.58;1.70;;;14.50;99.90;;;;;;5073820;28;20457;-87
2022/09/15 06:43:42;;;;;;;2.47;1.70;;;14.50;99.90;;;;;;5068142;28;20025;-85
2022/09/15 06:46:13;;;;;;;2.30;1.50;;;14.50;99.90;;;;;;5054112;28;20240;-86
2022/09/15 06:48:42;;;;;;;3.65;2.15;;;14.40;99.90;;;;;;5056671;28;20033;-90
2022/09/15 06:51:12;;;;;;;2.33;1.40;;;14.40;99.90;;;;;;5063374;28;20103;-81
2022/09/15 06:53:40;;;;;;;5.18;1.60;;;14.40;99.90;;;;;;5054323;28;20053;-87
2022/09/15 06:56:19;;;;;;;2.47;1.75;;;14.40;99.90;;;;;;5051698;28;20025;-85
2022/09/15 06:58:50;;;;;;;2.55;1.55;;;14.30;99.90;;;;;;5066643;28;20056;-80
2022/09/15 07:01:28;;;;;;;2.95;1.80;;;14.30;99.90;;;;;;5060920;28;20029;-80
2022/09/15 07:03:59;;;;;;;4.00;2.40;;;14.40;99.90;;;;;;5082478;28;20028;-85
2022/09/15 07:06:31;;;;;;;3.30;1.77;;;14.40;99.90;;;;;;5074478;28;20059;-81
2022/09/15 07:08:59;;;;;;;1.73;1.30;;;14.40;99.90;;;;;;5063055;28;20037;-81
2022/09/15 07:11:26;;;;;;;2.17;1.63;;;14.30;99.90;;;;;;5069050;28;20123;-84
2022/09/15 07:13:54;;;;;;;2.63;1.60;;;14.30;99.90;;;;;;5062752;28;20100;-77
2022/09/15 07:16:22;;;;;;;2.33;1.50;;;14.30;99.90;;;;;;5079366;28;20076;-83
2022/09/15 07:18:49;;;;;;;1.90;1.27;;;14.30;99.90;;;;;;5058459;28;20035;-78
2022/09/15 07:21:19;;;;;;;1.75;1.17;;;14.30;99.90;;;;;;5069629;28;20017;-77
2022/09/15 07:23:48;;;;;;;2.80;1.92;;;14.20;99.90;;;;;;5056918;28;20025;-82
2022/09/15 07:26:27;;;;;;;1.52;1.42;;;14.20;99.90;;;;;;5071744;28;20047;-83
2022/09/15 07:29:03;;;;;;;3.88;1.77;;;14.30;99.90;;;;;;5072643;28;20382;-80
2022/09/15 07:31:34;;;;;;;3.20;2.00;;;14.20;99.90;;;;;;5075321;28;20114;-82
2022/09/15 07:34:02;;;;;;;2.90;1.80;;;14.20;99.90;;;;;;5059837;28;20124;-82
2022/09/15 07:36:30;;;;;;;4.43;2.50;;;14.20;99.90;;;;;;5072001;28;20033;-78
2022/09/15 07:38:58;;;;;;;2.40;1.90;;;14.20;99.90;;;;;;5067849;28;20041;-80
2022/09/15 07:41:27;;;;;;;5.63;2.85;;;14.20;99.90;;;;;;5061870;28;20036;-85
2022/09/15 07:43:57;;;;;;;2.88;2.13;;;14.10;99.90;;;;;;5057688;28;20471;-81
2022/09/15 07:46:27;;;;;;;5.22;3.83;;;14.10;99.90;;;;;;5076009;28;20045;-80
2022/09/15 07:48:57;;;;;;;5.40;3.00;;;14.10;99.90;;;;;;5071516;28;20029;-84
2022/09/15 07:51:25;;;;;;;3.58;2.53;;;14.00;99.90;;;;;;5067345;28;20112;-83
2022/09/15 07:53:54;;;;;;;3.22;2.58;;;14.00;99.90;;;;;;5064852;28;20484;-85
2022/09/15 07:56:23;;;;;;;3.17;2.53;;;14.00;99.90;;;;;;5063763;28;20025;-89
2022/09/15 07:58:51;;;;;;;5.43;2.60;;;13.90;99.90;;;;;;5060660;28;20036;-82
2022/09/15 08:01:21;;;;;;;5.13;2.40;;;13.90;99.90;;;;;;5061098;28;20111;-82
2022/09/15 08:03:51;;;;;;;4.50;2.92;;;13.90;99.90;;;;;;5056852;28;20051;-85
2022/09/15 08:06:20;;;;;;;5.28;2.47;;;13.90;99.90;;;;;;5049415;28;20491;-81
2022/09/15 08:08:49;;;;;;;5.72;2.67;;;13.80;99.90;;;;;;5064525;28;20109;-83
2022/09/15 08:11:19;;;;;;;3.45;2.55;;;13.80;99.90;;;;;;5067246;28;20028;-81
2022/09/15 08:13:49;;;;;;;5.28;3.20;;;13.80;99.90;;;;;;5055616;28;20033;-80
2022/09/15 08:16:19;;;;;;;4.68;3.33;;;13.80;99.90;;;;;;5066242;28;20060;-79
2022/09/15 08:18:47;;;;;;;6.28;3.60;;;13.80;99.90;;;;;;5056767;28;20025;-80
2022/09/15 08:21:19;;;;;;;6.60;3.15;;;13.70;99.90;;;;;;5057944;28;20487;-82
2022/09/15 08:23:56;;;;;;;5.68;3.80;;;13.80;99.90;;;;;;5064581;28;20036;-82
2022/09/15 08:26:26;;;;;;;6.85;3.97;;;13.70;99.90;;;;;;5079165;28;20560;-81
2022/09/15 08:28:53;;;;;;;10.63;4.72;;;13.70;99.90;;;;;;5065182;28;20029;-81
2022/09/15 08:31:22;;;;;;;7.43;3.55;;;13.70;99.90;;;;;;5069369;28;20530;-87
2022/09/15 08:33:52;;;;;;;5.72;4.43;;;13.70;99.90;;;;;;5083368;28;20031;-84
2022/09/15 08:36:20;;;;;;;5.22;3.63;;;13.70;99.90;;;;;;5067254;28;20039;-78
2022/09/15 08:38:47;;;;;;;7.32;3.97;;;13.70;99.90;;;;;;5069658;28;20025;-75
2022/09/15 08:41:41;;;;;;;4.35;3.65;;;13.70;99.90;;;;;;5074217;28;20497;-76
2022/09/15 08:44:30;;;;;;;4.85;3.00;;;13.70;99.90;;;;;;5049130;28;20044;-77
2022/09/15 08:47:22;;;;;;;6.10;3.65;;;13.70;99.90;;;;;;5064533;28;20047;-75
2022/09/15 08:50:14;;;;;;;4.80;3.90;;;13.70;99.90;;;;;;5072434;28;20032;-75
2022/09/15 08:52:52;;;;;;;4.15;3.63;;;13.70;99.90;;;;;;5063181;28;20099;-76
2022/09/15 08:55:48;;;;;;;11.10;6.30;;;13.70;99.90;;;;;;5059682;28;20438;-77
2022/09/15 08:58:20;;;;;;;10.65;7.38;;;13.70;99.90;;;;;;5044653;28;20037;-76
2022/09/15 09:00:52;;;;;;;10.30;6.43;;;13.70;99.90;;;;;;5057997;28;20101;-75
2022/09/15 09:03:35;;;;;;;8.70;6.82;;;13.70;99.90;;;;;;5061791;28;20059;-75
2022/09/15 09:06:26;;;;;;;11.60;7.78;;;13.70;99.90;;;;;;5069609;28;20138;-76
2022/09/15 09:09:18;;;;;;;12.05;8.80;;;13.70;99.90;;;;;;5068405;28;20506;-74
2022/09/15 09:11:55;;;;;;;14.02;9.48;;;13.70;99.90;;;;;;5059223;28;20119;-76
2022/09/15 09:15:03;;;;;;;10.43;8.00;;;13.80;99.90;;;;;;5064059;28;20104;-76
2022/09/15 09:18:03;;;;;;;9.45;7.60;;;13.80;99.90;;;;;;5064321;28;20043;-75
2022/09/15 09:20:54;;;;;;;11.95;7.90;;;13.80;99.90;;;;;;5064776;28;20361;-71
2022/09/15 09:23:26;;;;;;;12.02;9.07;;;13.80;99.90;;;;;;5069805;28;20027;-76
2022/09/15 09:25:55;;;;;;;15.20;10.25;;;13.80;99.90;;;;;;5053796;28;20058;-74
2022/09/15 09:28:49;;;;;;;14.40;8.68;;;13.80;99.90;;;;;;5056371;28;20051;-76
2022/09/15 09:31:22;;;;;;;14.02;9.88;;;13.80;99.90;;;;;;5062692;28;20126;-75
2022/09/15 09:34:27;;;;;;;12.63;8.52;;;13.90;99.90;;;;;;5067875;28;20033;-75
2022/09/15 09:36:58;;;;;;;13.55;8.93;;;13.90;99.90;;;;;;5063153;28;20155;-75
2022/09/15 09:39:27;;;;;;;12.23;8.57;;;13.80;99.90;;;;;;5056328;28;20113;-76
2022/09/15 09:41:55;;;;;;;12.30;9.20;;;13.90;99.90;;;;;;5062137;28;20029;-75
2022/09/15 09:44:30;;;;;;;16.60;12.65;;;13.90;99.90;;;;;;5060319;28;20033;-76
2022/09/15 09:47:01;;;;;;;27.75;16.38;;;13.90;99.90;;;;;;5053667;28;20566;-76
2022/09/15 09:49:37;;;;;;;18.90;12.98;;;13.90;99.90;;;;;;5070911;28;20514;-72
2022/09/15 09:52:05;;;;;;;14.38;10.30;;;13.90;99.90;;;;;;5062323;28;20067;-76
2022/09/15 09:54:34;;;;;;;14.88;10.52;;;13.90;99.90;;;;;;5069642;28;20029;-75
2022/09/15 09:57:14;;;;;;;13.50;10.70;;;13.90;99.90;;;;;;5064599;28;20032;-75
2022/09/15 09:59:50;;;;;;;10.52;7.90;;;13.90;99.90;;;;;;5060822;28;20037;-75
2022/09/15 10:02:23;;;;;;;9.32;6.20;;;13.90;99.90;;;;;;5056847;28;20034;-77
2022/09/15 10:05:04;;;;;;;11.73;8.55;;;13.90;99.90;;;;;;5068970;28;20036;-76
2022/09/15 10:07:33;;;;;;;14.18;9.65;;;13.90;99.90;;;;;;5064429;28;20106;-76
2022/09/15 10:10:01;;;;;;;14.48;9.88;;;13.90;99.90;;;;;;5068334;28;20020;-73
2022/09/15 10:12:40;;;;;;;12.18;7.97;;;13.90;99.90;;;;;;5058002;28;20021;-76
2022/09/15 10:15:21;;;;;;;14.80;9.80;;;13.90;99.90;;;;;;5051947;28;20064;-76
2022/09/15 10:17:50;;;;;;;9.75;6.75;;;13.90;99.90;;;;;;5056340;28;20032;-77
2022/09/15 10:20:34;;;;;;;8.45;6.53;;;13.90;99.90;;;;;;5066555;28;20391;-75
2022/09/15 10:23:21;;;;;;;8.95;6.78;;;13.90;99.90;;;;;;5053741;28;20414;-75
2022/09/15 10:25:49;;;;;;;8.93;6.03;;;13.90;99.90;;;;;;5062289;28;20036;-77
2022/09/15 10:28:20;;;;;;;7.50;6.05;;;13.80;99.90;;;;;;5066112;28;20028;-76
2022/09/15 10:31:02;;;;;;;7.32;5.28;;;13.80;99.90;;;;;;5060855;28;20053;-76
2022/09/15 10:33:33;;;;;;;8.13;5.50;;;13.80;99.90;;;;;;5065724;28;20094;-75
2022/09/15 10:36:23;;;;;;;9.40;6.43;;;13.80;99.90;;;;;;5054706;28;20091;-74
2022/09/15 10:38:58;;;;;;;5.80;4.80;;;13.70;99.90;;;;;;5069082;28;20028;-77
2022/09/15 10:41:31;;;;;;;7.07;4.67;;;13.70;99.90;;;;;;5070373;28;20107;-77
2022/09/15 10:44:04;;;;;;;7.38;5.47;;;13.70;99.90;;;;;;5051844;28;20056;-76
2022/09/15 10:46:55;;;;;;;7.22;5.60;;;13.70;99.90;;;;;;5052234;28;20029;-77
2022/09/15 10:49:37;;;;;;;6.38;5.65;;;13.70;99.90;;;;;;5053365;28;20013;-74
2022/09/15 10:52:17;;;;;;;9.57;6.13;;;13.70;99.90;;;;;;5062618;28;20029;-76
2022/09/15 10:55:11;;;;;;;7.20;5.68;;;13.70;99.90;;;;;;5067343;28;20094;-74
2022/09/15 10:57:54;;;;;;;8.80;6.72;;;13.70;99.90;;;;;;5064318;28;20029;-73
2022/09/15 11:00:23;;;;;;;11.93;7.07;;;13.70;99.90;;;;;;5061604;28;21053;-74
2022/09/15 11:03:11;;;;;;;8.50;6.15;;;13.70;99.90;;;;;;5064218;28;20120;-77
2022/09/15 11:06:23;;;;;;;9.00;6.43;;;13.70;99.90;;;;;;5057082;28;20072;-76
2022/09/15 11:08:53;;;;;;;9.00;6.97;;;13.70;99.90;;;;;;5056067;28;20036;-73
2022/09/15 11:11:45;;;;;;;9.48;6.35;;;13.70;99.90;;;;;;5063327;28;20043;-76
2022/09/15 11:14:16;;;;;;;9.30;7.05;;;13.70;99.90;;;;;;5065560;28;20034;-77
2022/09/15 11:17:37;;;;;;;8.63;6.05;;;13.70;99.90;;;;;;5056464;28;20045;-77
2022/09/15 11:20:41;;;;;;;8.38;5.80;;;13.70;99.90;;;;;;4960170;28;20022;-78
2022/09/15 11:23:18;;;;;;;8.68;6.28;;;13.60;99.90;;;;;;5058784;28;20813;-75
2022/09/15 11:26:18;;;;;;;9.35;6.25;;;13.70;99.90;;;;;;5057725;28;20040;-73
2022/09/15 11:29:13;;;;;;;9.05;6.78;;;13.70;99.90;;;;;;5061721;28;20021;-77
2022/09/15 11:31:45;;;;;;;8.43;6.18;;;13.70;99.90;;;;;;5063432;28;20044;-77
2022/09/15 11:34:28;;;;;;;11.40;6.93;;;13.70;99.90;;;;;;5053733;28;20040;-78
2022/09/15 11:37:18;;;;;;;8.50;5.80;;;13.70;99.90;;;;;;5068867;28;20482;-77
2022/09/15 11:39:48;;;;;;;7.68;6.50;;;13.70;99.90;;;;;;5063815;28;20154;-78
2022/09/15 11:42:39;;;;;;;7.65;5.32;;;13.70;99.90;;;;;;5059925;28;20040;-77
2022/09/15 11:45:17;;;;;;;8.68;5.78;;;13.70;99.90;;;;;;5065376;28;20064;-76
2022/09/15 11:47:51;;;;;;;5.97;4.65;;;13.60;99.90;;;;;;5057136;28;20063;-77
2022/09/15 11:50:38;;;;;;;7.70;6.13;;;13.60;99.90;;;;;;5064436;28;20043;-76
2022/09/15 11:53:27;;;;;;;7.55;5.90;;;13.70;99.90;;;;;;5065620;28;20061;-77
2022/09/15 11:56:09;;;;;;;7.55;5.47;;;13.70;99.90;;;;;;5088813;28;20031;-75
2022/09/15 11:59:07;;;;;;;9.88;5.75;;;13.70;99.90;;;;;;5065725;28;20475;-75
2022/09/15 12:01:50;;;;;;;7.47;5.65;;;13.70;99.90;;;;;;5053169;28;20586;-74
2022/09/15 12:04:27;;;;;;;7.25;5.70;;;13.70;99.90;;;;;;5068154;28;20021;-76
2022/09/15 12:07:17;;;;;;;5.93;5.18;;;13.70;99.90;;;;;;5082962;28;20028;-75
2022/09/15 12:09:47;;;;;;;7.93;6.20;;;13.60;99.90;;;;;;5066244;28;20051;-72
2022/09/15 12:12:17;;;;;;;8.50;5.70;;;13.60;99.90;;;;;;5071712;28;20024;-75
2022/09/15 12:14:47;;;;;;;8.50;6.38;;;13.60;99.90;;;;;;5066102;28;20028;-75
2022/09/15 12:17:44;;;;;;;7.32;5.75;;;13.60;99.90;;;;;;5059871;28;20536;-77
2022/09/15 12:20:24;;;;;;;9.52;6.13;;;13.50;99.90;;;;;;5068362;28;20039;-76
2022/09/15 12:22:54;;;;;;;8.18;6.55;;;13.50;99.90;;;;;;5062295;28;20031;-72
2022/09/15 12:25:39;;;;;;;8.88;5.72;;;13.50;99.90;;;;;;5056241;28;20062;-76
2022/09/15 12:28:22;;;;;;;8.52;7.07;;;13.50;99.90;;;;;;5057400;28;20048;-77
2022/09/15 12:31:13;;;;;;;7.00;5.75;;;13.50;99.90;;;;;;5076407;28;20511;-78
2022/09/15 12:33:44;;;;;;;8.68;7.00;;;13.50;99.90;;;;;;5058068;28;20048;-77
2022/09/15 12:36:36;;;;;;;9.20;7.15;;;13.50;99.90;;;;;;5056565;28;20036;-77
2022/09/15 12:39:25;;;;;;;9.13;6.90;;;13.50;99.90;;;;;;5081822;28;20028;-79
2022/09/15 12:42:10;;;;;;;9.10;6.50;;;13.50;99.90;;;;;;5085779;28;20028;-79
2022/09/15 12:44:52;;;;;;;10.05;7.00;;;13.50;99.90;;;;;;5071316;28;20032;-79
2022/09/15 12:47:27;;;;;;;10.35;7.60;;;13.50;99.90;;;;;;5076838;28;20028;-78
2022/09/15 12:50:15;;;;;;;10.85;8.50;;;13.40;99.90;;;;;;5067466;28;20104;-75
2022/09/15 12:52:46;;;;;;;10.68;8.18;;;13.40;99.90;;;;;;5064213;28;20020;-77
2022/09/15 12:55:30;;;;;;;14.27;9.85;;;13.30;99.90;;;;;;5058851;28;20032;-75
2022/09/15 12:58:15;;;;;;;12.32;9.50;;;13.30;99.90;;;;;;5066176;28;20502;-77
2022/09/15 13:00:43;;;;;;;12.07;8.85;;;13.30;99.90;;;;;;5063831;28;20090;-77
2022/09/15 13:03:39;;;;;;;11.10;9.38;;;13.40;99.90;;;;;;5072493;28;20062;-76
2022/09/15 13:06:20;;;;;;;13.30;8.60;;;13.30;99.90;;;;;;4999582;28;20054;-75
2022/09/15 13:08:54;;;;;;;10.27;7.85;;;13.30;99.90;;;;;;5064830;28;20028;-76
2022/09/15 13:11:37;;;;;;;11.23;7.35;;;13.30;99.90;;;;;;5055782;28;20033;-76
2022/09/15 13:14:07;;;;;;;9.43;6.78;;;13.30;99.90;;;;;;5061272;28;20025;-76
2022/09/15 13:16:44;;;;;;;8.95;6.55;;;13.30;99.90;;;;;;5066795;28;20028;-76
2022/09/15 13:19:20;;;;;;;10.32;6.85;;;13.30;99.90;;;;;;5061280;28;20019;-76
2022/09/15 13:22:04;;;;;;;8.57;6.30;;;13.30;99.90;;;;;;5060685;28;20029;-77
2022/09/15 13:24:46;;;;;;;6.85;4.72;;;13.30;99.90;;;;;;5052873;28;20033;-77
2022/09/15 13:27:19;;;;;;;8.35;4.60;;;13.30;99.90;;;;;;5063548;28;20062;-76